createdAt,value
2023-01-11T00:01:27.213Z,100625.47
2023-01-11T00:03:55.689Z,100623.50
2023-01-11T00:06:26.519Z,100619.78
2023-01-11T00:08:56.125Z,100620.66
2023-01-11T00:11:24.091Z,100623.22
2023-01-11T00:13:51.954Z,100624.09
2023-01-11T00:16:21.159Z,100614.84
2023-01-11T00:18:49.044Z,100615.81
2023-01-11T00:21:16.866Z,100614.84
2023-01-11T00:23:44.719Z,100611.13
2023-01-11T00:26:13.852Z,100610.03
2023-01-11T00:28:41.821Z,100602.72
2023-01-11T00:31:09.636Z,100604.44
2023-01-11T00:33:38.921Z,100598.88
2023-01-11T00:36:07.254Z,100600.59
2023-01-11T00:38:53.796Z,100597.88
2023-01-11T00:41:40.988Z,100585.88
2023-01-11T00:44:28.645Z,100589.59
2023-01-11T00:47:15.214Z,100596.03
2023-01-11T00:49:44.944Z,100604.09
2023-01-11T00:52:12.852Z,100591.34
2023-01-11T00:54:41.994Z,100578.47
2023-01-11T00:57:10.202Z,100574.72
2023-01-11T00:59:40.532Z,100574.63
2023-01-11T01:02:09.728Z,100577.22
2023-01-11T01:04:38.344Z,100584.41
2023-01-11T01:07:08.313Z,100574.25
2023-01-11T01:09:36.164Z,100587.00
2023-01-11T01:12:04.216Z,100574.16
2023-01-11T01:14:33.112Z,100577.69
2023-01-11T01:17:02.686Z,100573.88
2023-01-11T01:19:31.558Z,100571.16
2023-01-11T01:22:00.485Z,100577.47
2023-01-11T01:24:30.902Z,100579.22
2023-01-11T01:26:59.751Z,100574.75
2023-01-11T01:29:27.517Z,100587.38
2023-01-11T01:31:55.458Z,100564.59
2023-01-11T01:34:23.262Z,100559.16
2023-01-11T01:36:51.052Z,100558.28
2023-01-11T01:39:18.869Z,100553.69
2023-01-11T01:41:48.313Z,100555.31
2023-01-11T01:44:54.107Z,100552.72
2023-01-11T01:47:25.242Z,100542.81
2023-01-11T01:49:55.922Z,100545.66
2023-01-11T01:52:29.286Z,100546.41
2023-01-11T01:55:02.058Z,100531.78
2023-01-11T01:57:35.076Z,100531.78
2023-01-11T02:00:07.764Z,100533.38
2023-01-11T02:02:38.162Z,100532.50
2023-01-11T02:05:07.776Z,100532.25
2023-01-11T02:07:39.081Z,100526.81
2023-01-11T02:10:10.266Z,100527.69
2023-01-11T02:12:42.878Z,100532.03
2023-01-11T02:15:11.908Z,100532.25
2023-01-11T02:17:39.852Z,100522.97
2023-01-11T02:20:20.724Z,100515.41
2023-01-11T02:23:10.630Z,100523.69
2023-01-11T02:25:59.327Z,100512.81
2023-01-11T02:28:34.636Z,100511.22
2023-01-11T02:31:11.924Z,100499.56
2023-01-11T02:33:48.211Z,100503.41
2023-01-11T02:36:27.480Z,100498.22
2023-01-11T02:38:58.870Z,100494.00
2023-01-11T02:41:53.777Z,100491.66
2023-01-11T02:44:46.542Z,100492.78
2023-01-11T02:47:19.960Z,100490.44
2023-01-11T02:49:52.829Z,100500.34
2023-01-11T02:52:28.346Z,100487.84
2023-01-11T02:55:00.000Z,100481.41
2023-01-11T02:57:29.637Z,100479.53
2023-01-11T03:00:00.398Z,100489.44
2023-01-11T03:02:29.233Z,100478.69
2023-01-11T03:04:57.025Z,100465.94
2023-01-11T03:07:42.530Z,100466.53
2023-01-11T03:10:22.232Z,100465.66
2023-01-11T03:13:03.892Z,100468.25
2023-01-11T03:16:03.283Z,100453.53
2023-01-11T03:18:45.249Z,100452.66
2023-01-11T03:21:30.147Z,100452.38
2023-01-11T03:24:12.042Z,100455.00
2023-01-11T03:26:54.931Z,100465.78
2023-01-11T03:29:29.541Z,100454.88
2023-01-11T03:32:09.114Z,100463.69
2023-01-11T03:34:41.689Z,100466.25
2023-01-11T03:37:14.808Z,100468.97
2023-01-11T03:39:47.187Z,100471.44
2023-01-11T03:42:17.963Z,100468.84
2023-01-11T03:44:51.447Z,100461.44
2023-01-11T03:47:24.919Z,100466.00
2023-01-11T03:49:56.032Z,100470.72
2023-01-11T03:52:30.002Z,100463.69
2023-01-11T03:55:00.239Z,100461.94
2023-01-11T03:57:33.094Z,100469.25
2023-01-11T04:00:01.042Z,100461.47
2023-01-11T04:02:36.422Z,100467.03
2023-01-11T04:05:04.712Z,100459.72
2023-01-11T04:07:32.760Z,100455.13
2023-01-11T04:10:00.614Z,100439.78
2023-01-11T04:12:28.725Z,100439.78
2023-01-11T04:14:56.594Z,100447.09
2023-01-11T04:17:24.792Z,100441.50
2023-01-11T04:19:53.979Z,100440.50
2023-01-11T04:22:21.752Z,100435.06
2023-01-11T04:24:49.667Z,100436.78
2023-01-11T04:27:17.555Z,100440.38
2023-01-11T04:29:45.349Z,100431.22
2023-01-11T04:32:13.159Z,100426.66
2023-01-11T04:34:40.940Z,100424.78
2023-01-11T04:37:11.914Z,100424.53
2023-01-11T04:39:39.907Z,100428.25
2023-01-11T04:42:19.841Z,100411.75
2023-01-11T04:44:48.814Z,100422.66
2023-01-11T04:47:17.183Z,100423.41
2023-01-11T04:49:45.251Z,100422.41
2023-01-11T04:52:16.418Z,100427.63
2023-01-11T04:54:44.748Z,100426.75
2023-01-11T04:57:14.823Z,100417.44
2023-01-11T04:59:43.159Z,100420.03
2023-01-11T05:02:10.966Z,100418.19
2023-01-11T05:04:38.750Z,100422.50
2023-01-11T05:07:09.356Z,100421.41
2023-01-11T05:09:38.500Z,100414.09
2023-01-11T05:12:06.416Z,100415.94
2023-01-11T05:14:34.209Z,100417.53
2023-01-11T05:17:01.955Z,100406.50
2023-01-11T05:19:29.839Z,100419.03
2023-01-11T05:21:57.763Z,100413.44
2023-01-11T05:24:25.627Z,100416.00
2023-01-11T05:26:54.856Z,100423.84
2023-01-11T05:29:22.725Z,100412.94
2023-01-11T05:31:50.602Z,100420.03
2023-01-11T05:34:19.313Z,100417.00
2023-01-11T05:36:47.281Z,100408.72
2023-01-11T05:39:15.915Z,100420.34
2023-01-11T05:41:43.681Z,100404.75
2023-01-11T05:44:32.000Z,100408.06
2023-01-11T05:47:00.241Z,100408.06
2023-01-11T05:49:28.055Z,100403.22
2023-01-11T05:51:55.996Z,100415.69
2023-01-11T05:54:23.791Z,100423.75
2023-01-11T05:56:51.657Z,100418.06
2023-01-11T05:59:20.855Z,100418.63
2023-01-11T06:01:49.953Z,100419.50
2023-01-11T06:04:17.764Z,100411.19
2023-01-11T06:06:47.111Z,100414.66
2023-01-11T06:09:15.042Z,100404.50
2023-01-11T06:11:43.391Z,100412.41
2023-01-11T06:14:11.184Z,100403.22
2023-01-11T06:16:40.416Z,100411.16
2023-01-11T06:19:08.219Z,100408.41
2023-01-11T06:21:36.017Z,100405.56
2023-01-11T06:24:03.827Z,100409.00
2023-01-11T06:26:32.281Z,100411.59
2023-01-11T06:29:00.261Z,100409.63
2023-01-11T06:31:28.093Z,100409.38
2023-01-11T06:33:57.235Z,100411.69
2023-01-11T06:36:25.056Z,100412.41
2023-01-11T06:38:53.574Z,100407.53
2023-01-11T06:41:21.324Z,100408.16
2023-01-11T06:43:49.082Z,100406.88
2023-01-11T06:46:18.866Z,100413.81
2023-01-11T06:48:47.378Z,100414.53
2023-01-11T06:51:17.255Z,100411.53
2023-01-11T06:53:46.447Z,100411.41
2023-01-11T06:56:15.881Z,100415.72
2023-01-11T06:58:46.760Z,100414.72
2023-01-11T07:01:15.558Z,100423.50
2023-01-11T07:03:43.780Z,100416.03
2023-01-11T07:06:11.620Z,100429.44
2023-01-11T07:08:40.759Z,100431.75
2023-01-11T07:11:10.023Z,100435.22
2023-01-11T07:13:38.174Z,100446.72
2023-01-11T07:16:06.291Z,100441.13
2023-01-11T07:18:34.156Z,100455.50
2023-01-11T07:21:02.409Z,100467.03
2023-01-11T07:23:30.198Z,100460.28
2023-01-11T07:25:59.541Z,100457.16
2023-01-11T07:28:28.456Z,100477.84
2023-01-11T07:30:59.218Z,100484.06
2023-01-11T07:33:27.468Z,100490.00
2023-01-11T07:35:55.656Z,100494.34
2023-01-11T07:38:24.028Z,100501.41
2023-01-11T07:40:51.854Z,100495.63
2023-01-11T07:43:23.089Z,100480.72
2023-01-11T07:45:53.615Z,100492.38
2023-01-11T07:48:26.368Z,100486.63
2023-01-11T07:50:54.965Z,100490.97
2023-01-11T07:53:25.582Z,100485.38
2023-01-11T07:55:53.663Z,100471.41
2023-01-11T07:58:23.102Z,100464.81
2023-01-11T08:00:50.927Z,100462.94
2023-01-11T08:03:18.892Z,100460.94
2023-01-11T08:05:50.850Z,100472.44
2023-01-11T08:08:18.686Z,100501.66
2023-01-11T08:10:46.461Z,100502.38
2023-01-11T08:13:33.040Z,100504.97
2023-01-11T08:16:02.345Z,100518.50
2023-01-11T08:18:30.167Z,100525.84
2023-01-11T08:20:58.216Z,100529.31
2023-01-11T08:23:27.174Z,100525.56
2023-01-11T08:25:57.938Z,100522.69
2023-01-11T08:28:25.835Z,100518.09
2023-01-11T08:30:53.767Z,100508.03
2023-01-11T08:33:22.909Z,100515.97
2023-01-11T08:35:50.871Z,100517.81
2023-01-11T08:38:18.641Z,100532.22
2023-01-11T08:40:46.420Z,100533.94
2023-01-11T08:43:14.214Z,100540.25
2023-01-11T08:45:41.977Z,100549.19
2023-01-11T08:48:09.767Z,100548.19
2023-01-11T08:50:38.930Z,100560.72
2023-01-11T08:53:06.711Z,100580.00
2023-01-11T08:55:34.540Z,100579.13
2023-01-11T08:58:02.400Z,100579.13
2023-01-11T09:00:30.314Z,100574.94
2023-01-11T09:03:01.207Z,100587.16
2023-01-11T09:05:29.187Z,100592.19
2023-01-11T09:07:58.843Z,100597.91
2023-01-11T09:10:27.258Z,100602.91
2023-01-11T09:12:55.301Z,100623.19
2023-01-11T09:15:23.708Z,100627.91
2023-01-11T09:17:51.911Z,100631.63
2023-01-11T09:20:21.090Z,100629.91
2023-01-11T09:22:50.705Z,100632.63
2023-01-11T09:25:21.515Z,100634.50
2023-01-11T09:27:50.760Z,100634.66
2023-01-11T09:30:20.267Z,100637.22
2023-01-11T09:32:48.561Z,100643.72
2023-01-11T09:35:18.008Z,100659.94
2023-01-11T09:37:49.930Z,100652.63
2023-01-11T09:40:23.179Z,100662.84
2023-01-11T09:42:52.760Z,100656.34
2023-01-11T09:45:23.372Z,100660.81
2023-01-11T09:47:57.105Z,100658.97
2023-01-11T09:50:29.415Z,100680.81
2023-01-11T09:52:59.986Z,100677.38
2023-01-11T09:55:35.114Z,100677.09
2023-01-11T09:58:28.324Z,100680.94
2023-01-11T10:01:06.982Z,100681.97
2023-01-11T10:03:53.137Z,100695.47
2023-01-11T10:06:27.010Z,100687.44
2023-01-11T10:18:30.186Z,100700.34
2023-01-11T10:18:32.896Z,100699.50
2023-01-11T10:21:12.807Z,100705.06
2023-01-11T10:23:49.634Z,100698.63
2023-01-11T10:26:27.340Z,100705.94
2023-01-11T10:29:22.028Z,100715.00
2023-01-11T10:32:11.063Z,100713.53
2023-01-11T10:34:59.943Z,100729.91
2023-01-11T10:37:50.014Z,100735.25
2023-01-11T10:40:40.148Z,100743.59
2023-01-11T10:43:16.841Z,100739.00
2023-01-11T10:45:51.339Z,100742.59
2023-01-11T10:48:25.357Z,100740.72
2023-01-11T10:51:04.537Z,100736.00
2023-01-11T10:53:38.220Z,100728.69
2023-01-11T10:56:19.654Z,100726.81
2023-01-11T10:59:05.071Z,100732.28
2023-01-11T11:01:50.189Z,100729.41
2023-01-11T11:04:36.114Z,100729.88
2023-01-11T11:07:12.355Z,100727.03
2023-01-11T11:09:51.335Z,100725.75
2023-01-11T11:12:24.013Z,100724.63
2023-01-11T11:15:00.274Z,100726.34
2023-01-11T11:17:33.057Z,100727.81
2023-01-11T11:20:00.990Z,100738.28
2023-01-11T11:22:28.887Z,100740.88
2023-01-11T11:25:04.978Z,100731.28
2023-01-11T11:27:41.912Z,100750.16
2023-01-11T11:30:12.973Z,100745.69
2023-01-11T11:32:47.696Z,100758.38
2023-01-11T11:35:31.550Z,100747.31
2023-01-11T11:37:59.602Z,100740.97
2023-01-11T11:40:33.413Z,100736.69
2023-01-11T11:43:13.234Z,100750.25
2023-01-11T11:45:52.895Z,100743.50
2023-01-11T11:48:23.349Z,100744.09
2023-01-11T11:50:52.563Z,100754.50
2023-01-11T11:53:42.938Z,100759.56
2023-01-11T11:56:21.998Z,100759.03
2023-01-11T11:58:50.728Z,100767.69
2023-01-11T12:01:28.561Z,100761.41
2023-01-11T12:04:01.448Z,100757.25
2023-01-11T12:06:29.778Z,100740.03
2023-01-11T12:09:01.306Z,100751.25
2023-01-11T12:11:32.941Z,100754.78
2023-01-11T12:14:04.813Z,100760.44
2023-01-11T12:16:41.582Z,100749.09
2023-01-11T12:19:30.425Z,100755.16
2023-01-11T12:22:12.571Z,100751.16
2023-01-11T12:24:40.487Z,100738.59
2023-01-11T12:27:18.744Z,100745.84
2023-01-11T12:30:20.326Z,100754.63
2023-01-11T12:33:10.557Z,100744.53
2023-01-11T12:35:51.224Z,100750.63
2023-01-11T12:38:32.000Z,100754.78
2023-01-11T12:41:16.531Z,100753.66
2023-01-11T12:44:01.272Z,100755.25
2023-01-11T12:46:43.777Z,100756.69
2023-01-11T12:49:25.064Z,100757.69
2023-01-11T12:52:14.137Z,100761.03
2023-01-11T12:55:01.803Z,100760.91
2023-01-11T12:57:37.081Z,100779.94
2023-01-11T13:00:44.305Z,100780.94
2023-01-11T13:03:37.355Z,100768.56
2023-01-11T13:06:10.988Z,100780.25
2023-01-11T13:08:53.898Z,100784.28
2023-01-11T13:11:38.223Z,100789.75
2023-01-11T13:14:31.811Z,100795.84
2023-01-11T13:17:11.699Z,100795.53
2023-01-11T13:19:45.570Z,100793.53
2023-01-11T13:22:17.132Z,100793.41
2023-01-11T13:24:50.432Z,100803.34
2023-01-11T13:27:22.403Z,100809.97
2023-01-11T13:29:53.666Z,100808.38
2023-01-11T13:32:24.720Z,100810.41
2023-01-11T13:34:55.642Z,100809.69
2023-01-11T13:37:30.642Z,100813.53
2023-01-11T13:40:08.092Z,100802.91
2023-01-11T13:42:39.621Z,100816.84
2023-01-11T13:45:16.683Z,100811.66
2023-01-11T13:47:48.650Z,100822.03
2023-01-11T13:50:21.617Z,100827.78
2023-01-11T13:53:03.476Z,100822.28
2023-01-11T13:55:41.766Z,100806.28
2023-01-11T13:58:17.006Z,100823.84
2023-01-11T14:00:48.785Z,100829.47
2023-01-11T14:03:27.868Z,100832.22
2023-01-11T14:06:09.301Z,100843.28
2023-01-11T14:09:01.565Z,100825.28
2023-01-11T14:11:42.093Z,100825.41
2023-01-11T14:14:37.280Z,100842.13
2023-01-11T14:17:25.763Z,100836.63
2023-01-11T14:20:01.073Z,100837.78
2023-01-11T14:22:40.257Z,100839.66
2023-01-11T14:25:19.657Z,100839.81
2023-01-11T14:28:25.461Z,100840.31
2023-01-11T14:31:19.749Z,100852.00
2023-01-11T14:34:06.336Z,100866.56
2023-01-11T14:37:02.495Z,100862.38
2023-01-11T14:40:01.856Z,100860.66
2023-01-11T14:42:59.202Z,100860.66
2023-01-11T14:45:45.760Z,100864.50
2023-01-11T14:48:29.957Z,100880.19
2023-01-11T14:51:25.920Z,100868.53
2023-01-11T14:54:01.865Z,100877.00
2023-01-11T14:56:50.585Z,100879.00
2023-01-11T14:59:32.873Z,100880.00
2023-01-11T15:02:28.876Z,100880.69
2023-01-11T15:05:34.797Z,100882.69
2023-01-11T15:08:17.005Z,100872.34
2023-01-11T15:10:56.447Z,100869.84
2023-01-11T15:13:26.546Z,100856.34
2023-01-11T15:16:27.221Z,100865.25
2023-01-11T15:18:57.330Z,100865.53
2023-01-11T15:21:27.381Z,100861.81
2023-01-11T15:23:58.136Z,100869.16
2023-01-11T15:26:27.791Z,100872.00
2023-01-11T15:28:57.364Z,100878.34
2023-01-11T15:31:49.925Z,100873.09
2023-01-11T15:34:28.274Z,100882.31
2023-01-11T15:37:37.014Z,100889.66
2023-01-11T15:40:12.507Z,100891.69
2023-01-11T15:43:20.979Z,100890.81
2023-01-11T15:46:46.006Z,100884.84
2023-01-11T15:50:06.127Z,100880.16
2023-01-11T15:53:09.564Z,100882.66
2023-01-11T15:56:12.805Z,100892.72
2023-01-11T15:59:30.331Z,100893.38
2023-01-11T16:02:55.489Z,100910.66
2023-01-11T16:05:29.267Z,100906.94
2023-01-11T16:08:08.523Z,100909.56
2023-01-11T16:10:56.528Z,100902.34
2023-01-11T16:13:41.867Z,100903.22
2023-01-11T16:16:22.055Z,100896.00
2023-01-11T16:18:54.510Z,100900.59
2023-01-11T16:21:33.473Z,100902.47
2023-01-11T16:24:10.937Z,100901.72
2023-01-11T16:26:44.328Z,100909.06
2023-01-11T16:29:19.451Z,100908.31
2023-01-11T16:31:59.638Z,100924.59
2023-01-11T16:34:28.960Z,100924.88
2023-01-11T16:36:58.433Z,100940.41
2023-01-11T16:39:30.037Z,100935.94
2023-01-11T16:42:03.242Z,100932.34
2023-01-11T16:44:42.078Z,100950.63
2023-01-11T16:47:17.004Z,100962.56
2023-01-11T16:49:48.973Z,100959.06
2023-01-11T16:52:40.247Z,100965.69
2023-01-11T16:55:29.669Z,100972.16
2023-01-11T16:58:01.140Z,100979.47
2023-01-11T17:00:35.910Z,100983.09
2023-01-11T17:03:17.894Z,100997.75
2023-01-11T17:05:55.124Z,100992.28
2023-01-11T17:08:28.321Z,100992.41
2023-01-11T17:11:00.135Z,100998.00
2023-01-11T17:14:12.756Z,101006.72
2023-01-11T17:16:42.845Z,101006.59
2023-01-11T17:19:16.266Z,101006.59
2023-01-11T17:21:49.715Z,101009.47
2023-01-11T17:24:23.905Z,101008.72
2023-01-11T17:26:54.925Z,101003.50
2023-01-11T17:29:30.162Z,101004.38
2023-01-11T17:32:00.624Z,101000.16
2023-01-11T17:34:31.947Z,100994.69
2023-01-11T17:37:01.412Z,100990.31
2023-01-11T17:39:34.280Z,101004.13
2023-01-11T17:42:20.370Z,101003.66
2023-01-11T17:45:09.418Z,100992.94
2023-01-11T17:47:40.179Z,100994.84
2023-01-11T17:50:19.927Z,100994.84
2023-01-11T17:52:54.848Z,101000.66
2023-01-11T17:55:26.589Z,101003.41
2023-01-11T17:58:17.406Z,101009.09
2023-01-11T18:01:03.146Z,101004.78
2023-01-11T18:03:32.013Z,101001.31
2023-01-11T18:06:13.678Z,101003.91
2023-01-11T18:08:47.889Z,101001.31
2023-01-11T18:11:25.284Z,101002.28
2023-01-11T18:13:54.227Z,101009.00
2023-01-11T18:16:23.625Z,101007.16
2023-01-11T18:18:53.377Z,101012.75
2023-01-11T18:21:41.292Z,101002.81
2023-01-11T18:24:35.739Z,101005.66
2023-01-11T18:27:29.250Z,101003.91
2023-01-11T18:30:01.216Z,101002.44
2023-01-11T18:32:35.717Z,101001.56
2023-01-11T18:35:04.110Z,101000.69
2023-01-11T18:37:31.923Z,101001.69
2023-01-11T18:40:01.364Z,100998.94
2023-01-11T18:42:33.934Z,100996.22
2023-01-11T18:45:01.753Z,100999.19
2023-01-11T18:47:30.459Z,100993.59
2023-01-11T18:50:03.743Z,100989.00
2023-01-11T18:52:31.860Z,100989.13
2023-01-11T18:54:59.719Z,100989.25
2023-01-11T18:57:27.599Z,100981.91
2023-01-11T18:59:56.970Z,100977.31
2023-01-11T19:02:27.829Z,100971.00
2023-01-11T19:04:57.339Z,100982.91
2023-01-11T19:07:26.954Z,100971.16
2023-01-11T19:09:55.920Z,100968.53
2023-01-11T19:12:24.776Z,100963.06
2023-01-11T19:14:52.685Z,100959.47
2023-01-11T19:17:22.104Z,100962.19
2023-01-11T19:19:50.013Z,100955.97
2023-01-11T19:22:17.902Z,100958.72
2023-01-11T19:24:45.777Z,100955.22
2023-01-11T19:27:14.045Z,100960.69
2023-01-11T19:29:42.254Z,100960.81
2023-01-11T19:32:10.400Z,100957.25
2023-01-11T19:34:40.659Z,100960.81
2023-01-11T19:37:08.676Z,100951.03
2023-01-11T19:39:36.870Z,100960.19
2023-01-11T19:42:04.904Z,100954.72
2023-01-11T19:44:33.825Z,100959.31
2023-01-11T19:47:11.291Z,100966.63
2023-01-11T19:49:41.532Z,100965.75
2023-01-11T19:52:13.427Z,100971.22
2023-01-11T19:54:42.789Z,100971.44
2023-01-11T19:57:11.433Z,100963.03
2023-01-11T19:59:39.474Z,100962.16
2023-01-11T20:02:07.967Z,100955.81
2023-01-11T20:04:35.887Z,100958.56
2023-01-11T20:07:05.401Z,100950.25
2023-01-11T20:09:33.482Z,100945.75
2023-01-11T20:12:01.392Z,100944.91
2023-01-11T20:14:29.324Z,100924.91
2023-01-11T20:16:57.377Z,100921.31
2023-01-11T20:19:25.313Z,100930.38
2023-01-11T20:21:53.244Z,100922.16
2023-01-11T20:24:28.102Z,100921.19
2023-01-11T20:26:56.634Z,100923.16
2023-01-11T20:29:24.618Z,100913.97
2023-01-11T20:31:52.654Z,100915.84
2023-01-11T20:34:20.848Z,100898.59
2023-01-11T20:36:49.108Z,100906.66
2023-01-11T20:39:17.585Z,100902.19
2023-01-11T20:41:49.928Z,100904.78
2023-01-11T20:44:19.931Z,100895.84
2023-01-11T20:46:48.680Z,100899.44
2023-01-11T20:49:16.979Z,100883.94
2023-01-11T20:51:45.760Z,100903.91
2023-01-11T20:54:14.399Z,100895.72
2023-01-11T20:56:42.577Z,100897.47
2023-01-11T20:59:13.625Z,100896.47
2023-01-11T21:01:41.645Z,100881.94
2023-01-11T21:04:11.298Z,100870.94
2023-01-11T21:06:41.216Z,100890.06
2023-01-11T21:09:10.565Z,100881.88
2023-01-11T21:11:41.171Z,100890.94
2023-01-11T21:14:11.994Z,100890.06
2023-01-11T21:16:44.308Z,100887.94
2023-01-11T21:19:13.588Z,100896.41
2023-01-11T21:21:42.021Z,100882.47
2023-01-11T21:24:13.079Z,100886.06
2023-01-11T21:26:42.280Z,100871.53
2023-01-11T21:29:11.499Z,100848.69
2023-01-11T21:31:40.629Z,100837.66
2023-01-11T21:34:11.618Z,100832.94
2023-01-11T21:36:40.092Z,100836.66
2023-01-11T21:39:09.298Z,100848.44
2023-01-11T21:41:54.785Z,100829.31
2023-01-11T21:44:26.441Z,100842.13
2023-01-11T21:46:55.836Z,100834.03
2023-01-11T21:49:25.275Z,100839.25
2023-01-11T21:51:56.035Z,100827.59
2023-01-11T21:54:23.928Z,100841.00
2023-01-11T21:56:52.641Z,100836.25
2023-01-11T21:59:21.449Z,100827.19
2023-01-11T22:01:49.800Z,100830.78
2023-01-11T22:04:20.121Z,100834.28
2023-01-11T22:06:55.134Z,100827.81
2023-01-11T22:09:24.657Z,100841.72
2023-01-11T22:11:52.664Z,100832.53
2023-01-11T22:14:20.508Z,100839.84
2023-01-11T22:16:48.636Z,100821.72
2023-01-11T22:19:17.279Z,100830.94
2023-01-11T22:21:45.481Z,100831.81
2023-01-11T22:24:15.448Z,100812.69
2023-01-11T22:26:43.236Z,100826.47
2023-01-11T22:29:15.038Z,100824.59
2023-01-11T22:31:46.588Z,100813.81
2023-01-11T22:34:15.359Z,100830.06
2023-01-11T22:36:43.832Z,100827.34
2023-01-11T22:39:12.776Z,100815.41
2023-01-11T22:41:42.128Z,100819.00
2023-01-11T22:44:11.111Z,100821.72
2023-01-11T22:46:39.178Z,100812.81
2023-01-11T22:49:07.818Z,100810.94
2023-01-11T22:51:36.060Z,100807.47
2023-01-11T22:54:05.132Z,100816.53
2023-01-11T22:56:33.813Z,100824.72
2023-01-11T22:59:03.232Z,100819.28
2023-01-11T23:01:32.852Z,100823.97
2023-01-11T23:04:01.722Z,100818.41
2023-01-11T23:06:31.481Z,100820.25
2023-01-11T23:08:59.896Z,100818.53
2023-01-11T23:12:01.369Z,100830.31
2023-01-11T23:14:32.930Z,100819.50
2023-01-11T23:17:02.110Z,100822.25
2023-01-11T23:19:31.968Z,100817.66
2023-01-11T23:22:00.192Z,100818.66
2023-01-11T23:24:27.985Z,100823.25
2023-01-11T23:26:55.997Z,100822.25
2023-01-11T23:29:24.256Z,100824.22
2023-01-11T23:31:53.512Z,100822.38
2023-01-11T23:34:21.330Z,100830.72
2023-01-11T23:36:49.213Z,100818.06
2023-01-11T23:39:18.811Z,100817.06
2023-01-11T23:42:04.262Z,100811.81
2023-01-11T23:44:32.114Z,100825.59
2023-01-11T23:47:19.095Z,100821.84
2023-01-11T23:49:46.935Z,100825.84
2023-01-11T23:52:14.704Z,100822.25
2023-01-11T23:54:43.378Z,100812.31
2023-01-11T23:57:12.336Z,100817.78
2023-01-11T23:59:41.617Z,100827.84
